createdAt,value
2023-05-22T00:01:51.901Z,17.52
2023-05-22T00:04:21.575Z,17.76
2023-05-22T00:06:49.456Z,17.60
2023-05-22T00:09:16.566Z,17.52
2023-05-22T00:11:43.539Z,17.02
2023-05-22T00:14:10.336Z,17.17
2023-05-22T00:16:37.045Z,17.48
2023-05-22T00:19:04.507Z,17.54
2023-05-22T00:21:34.889Z,17.63
2023-05-22T00:24:02.428Z,17.70
2023-05-22T00:26:29.104Z,17.10
2023-05-22T00:28:55.962Z,16.91
2023-05-22T00:31:23.388Z,16.70
2023-05-22T00:33:50.079Z,16.63
2023-05-22T00:36:18.684Z,16.76
2023-05-22T00:38:45.418Z,16.75
2023-05-22T00:41:12.264Z,16.54
2023-05-22T00:43:39.653Z,16.78
2023-05-22T00:46:07.841Z,17.07
2023-05-22T00:48:34.545Z,16.82
2023-05-22T00:51:01.956Z,17.09
2023-05-22T00:53:30.455Z,17.49
2023-05-22T00:55:58.755Z,17.67
2023-05-22T00:58:27.386Z,17.29
2023-05-22T01:00:55.539Z,17.63
2023-05-22T01:03:27.014Z,17.59
2023-05-22T01:05:54.827Z,17.31
2023-05-22T01:08:21.709Z,17.60
2023-05-22T01:10:54.501Z,17.72
2023-05-22T01:13:39.748Z,17.62
2023-05-22T01:16:30.410Z,17.49
2023-05-22T01:19:31.995Z,17.61
2023-05-22T01:22:21.740Z,17.68
2023-05-22T01:24:54.398Z,17.62
2023-05-22T01:27:39.069Z,17.58
2023-05-22T01:30:21.218Z,17.55
2023-05-22T01:32:49.805Z,17.18
2023-05-22T01:35:21.062Z,17.38
2023-05-22T01:37:48.531Z,17.44
2023-05-22T01:40:15.980Z,17.55
2023-05-22T01:42:42.799Z,17.60
2023-05-22T01:45:11.602Z,17.44
2023-05-22T01:47:38.378Z,17.39
2023-05-22T01:50:06.481Z,17.60
2023-05-22T01:53:24.876Z,17.56
2023-05-22T01:56:07.935Z,17.42
2023-05-22T01:58:45.219Z,17.45
2023-05-22T02:01:14.334Z,17.57
2023-05-22T02:03:42.745Z,17.64
2023-05-22T02:06:13.133Z,17.72
2023-05-22T02:08:42.024Z,17.74
2023-05-22T02:11:11.227Z,17.75
2023-05-22T02:13:38.886Z,17.61
2023-05-22T02:16:07.579Z,17.62
2023-05-22T02:18:34.358Z,17.65
2023-05-22T02:21:02.644Z,17.25
2023-05-22T02:23:29.950Z,17.34
2023-05-22T02:25:57.253Z,17.35
2023-05-22T02:28:24.265Z,17.50
2023-05-22T02:30:50.992Z,17.50
2023-05-22T02:33:18.679Z,17.31
2023-05-22T02:35:45.917Z,17.33
2023-05-22T02:38:13.080Z,17.32
2023-05-22T02:40:40.263Z,16.78
2023-05-22T02:43:07.240Z,15.96
2023-05-22T02:45:33.986Z,15.50
2023-05-22T02:48:03.577Z,15.53
2023-05-22T02:50:30.639Z,15.77
2023-05-22T02:52:57.309Z,16.20
2023-05-22T02:55:23.992Z,16.09
2023-05-22T02:57:50.837Z,16.17
2023-05-22T03:00:18.078Z,16.22
2023-05-22T03:02:44.830Z,16.48
2023-05-22T03:05:11.755Z,16.63
2023-05-22T03:07:38.350Z,16.77
2023-05-22T03:10:05.432Z,16.48
2023-05-22T03:12:32.167Z,16.16
2023-05-22T03:14:58.840Z,16.56
2023-05-22T03:17:25.632Z,16.68
2023-05-22T03:19:52.436Z,16.40
2023-05-22T03:22:19.176Z,16.29
2023-05-22T03:24:45.832Z,16.43
2023-05-22T03:27:16.367Z,16.49
2023-05-22T03:29:43.065Z,16.73
2023-05-22T03:32:09.773Z,16.91
2023-05-22T03:34:36.736Z,16.70
2023-05-22T03:37:03.544Z,16.88
2023-05-22T03:39:30.259Z,16.97
2023-05-22T03:41:57.029Z,16.86
2023-05-22T03:44:23.710Z,17.03
2023-05-22T03:46:51.304Z,17.25
2023-05-22T03:49:18.058Z,17.11
2023-05-22T03:51:44.821Z,16.63
2023-05-22T03:54:11.524Z,16.81
2023-05-22T03:56:38.180Z,17.11
2023-05-22T03:59:04.801Z,17.28
2023-05-22T04:01:31.597Z,17.14
2023-05-22T04:03:58.250Z,17.17
2023-05-22T04:06:25.720Z,17.40
2023-05-22T04:08:52.523Z,17.17
2023-05-22T04:11:19.841Z,17.35
2023-05-22T04:13:50.402Z,17.47
2023-05-22T04:16:17.719Z,17.47
2023-05-22T04:18:44.781Z,17.39
2023-05-22T04:21:12.883Z,17.19
2023-05-22T04:23:43.347Z,17.29
2023-05-22T04:26:10.560Z,17.42
2023-05-22T04:28:38.037Z,17.65
2023-05-22T04:31:06.562Z,17.75
2023-05-22T04:33:34.610Z,17.44
2023-05-22T04:36:03.087Z,17.04
2023-05-22T04:38:29.712Z,17.07
2023-05-22T04:40:57.161Z,17.45
2023-05-22T04:43:26.670Z,17.68
2023-05-22T04:45:54.235Z,17.67
2023-05-22T04:48:21.196Z,17.77
2023-05-22T04:50:48.376Z,17.84
2023-05-22T04:53:15.188Z,17.79
2023-05-22T04:55:42.088Z,17.79
2023-05-22T04:58:09.082Z,17.82
2023-05-22T05:00:35.940Z,17.86
2023-05-22T05:03:03.682Z,17.64
2023-05-22T05:05:30.509Z,17.99
2023-05-22T05:07:57.150Z,17.29
2023-05-22T05:10:23.792Z,17.40
2023-05-22T05:12:50.458Z,17.85
2023-05-22T05:15:17.341Z,17.33
2023-05-22T05:17:44.072Z,17.23
2023-05-22T05:20:14.419Z,17.39
2023-05-22T05:22:41.409Z,17.94
2023-05-22T05:25:09.617Z,18.04
2023-05-22T05:27:38.246Z,17.65
2023-05-22T05:30:05.376Z,17.34
2023-05-22T05:32:32.306Z,17.49
2023-05-22T05:34:58.951Z,17.64
2023-05-22T05:37:26.148Z,17.91
2023-05-22T05:39:52.831Z,17.96
2023-05-22T05:42:19.666Z,17.90
2023-05-22T05:44:46.442Z,17.04
2023-05-22T05:47:13.794Z,17.61
2023-05-22T05:49:40.532Z,17.28
2023-05-22T05:52:08.086Z,17.60
2023-05-22T05:54:34.720Z,17.93
2023-05-22T05:57:02.561Z,18.36
2023-05-22T05:59:29.179Z,18.20
2023-05-22T06:01:55.957Z,17.81
2023-05-22T06:04:22.635Z,17.76
2023-05-22T06:06:49.355Z,18.20
2023-05-22T06:09:16.461Z,18.91
2023-05-22T06:11:43.236Z,19.19
2023-05-22T06:14:10.319Z,18.94
2023-05-22T06:16:37.096Z,19.07
2023-05-22T06:19:04.781Z,18.73
2023-05-22T06:21:31.573Z,19.20
2023-05-22T06:23:58.856Z,19.52
2023-05-22T06:26:26.001Z,19.03
2023-05-22T06:28:54.105Z,18.90
2023-05-22T06:31:22.906Z,19.32
2023-05-22T06:33:50.024Z,19.49
2023-05-22T06:36:17.620Z,19.36
2023-05-22T06:38:46.100Z,18.79
2023-05-22T06:41:12.704Z,18.81
2023-05-22T06:43:39.386Z,19.36
2023-05-22T06:46:07.243Z,19.77
2023-05-22T06:48:35.294Z,19.89
2023-05-22T06:51:02.266Z,19.83
2023-05-22T06:53:28.947Z,19.89
2023-05-22T06:55:56.373Z,19.97
2023-05-22T06:58:23.015Z,19.48
2023-05-22T07:00:49.695Z,19.77
2023-05-22T07:03:16.422Z,20.15
2023-05-22T07:05:43.367Z,20.01
2023-05-22T07:08:10.421Z,19.80
2023-05-22T07:10:37.271Z,19.73
2023-05-22T07:13:04.178Z,19.92
2023-05-22T07:15:30.870Z,20.70
2023-05-22T07:17:57.694Z,20.30
2023-05-22T07:20:26.356Z,20.20
2023-05-22T07:22:53.010Z,20.13
2023-05-22T07:25:19.687Z,20.21
2023-05-22T07:27:46.354Z,20.53
2023-05-22T07:30:13.386Z,20.40
2023-05-22T07:32:40.335Z,20.63
2023-05-22T07:35:07.597Z,20.60
2023-05-22T07:37:36.068Z,20.16
2023-05-22T07:40:05.750Z,20.85
2023-05-22T07:42:32.619Z,20.98
2023-05-22T07:44:59.240Z,20.73
2023-05-22T07:47:26.084Z,20.20
2023-05-22T07:49:52.800Z,20.40
2023-05-22T07:52:19.870Z,20.83
2023-05-22T07:54:46.553Z,20.66
2023-05-22T07:57:13.542Z,20.09
2023-05-22T07:59:40.158Z,20.85
2023-05-22T08:02:08.529Z,21.07
2023-05-22T08:04:35.616Z,21.48
2023-05-22T08:07:02.643Z,20.90
2023-05-22T08:09:29.311Z,20.77
2023-05-22T08:11:55.989Z,20.26
2023-05-22T08:14:22.971Z,21.06
2023-05-22T08:16:49.730Z,21.46
2023-05-22T08:19:16.700Z,20.89
2023-05-22T08:21:43.384Z,21.45
2023-05-22T08:24:10.085Z,21.14
2023-05-22T08:26:36.935Z,20.70
2023-05-22T08:29:03.584Z,21.19
2023-05-22T08:31:30.335Z,21.31
2023-05-22T08:34:02.759Z,22.19
2023-05-22T08:36:31.689Z,22.32
2023-05-22T08:39:02.060Z,22.13
2023-05-22T08:41:29.807Z,21.92
2023-05-22T08:43:56.693Z,21.82
2023-05-22T08:46:26.526Z,22.31
2023-05-22T08:48:57.240Z,21.77
2023-05-22T08:51:28.286Z,22.18
2023-05-22T08:53:57.465Z,22.63
2023-05-22T08:56:25.178Z,22.67
2023-05-22T08:58:54.478Z,21.61
2023-05-22T09:01:22.479Z,22.06
2023-05-22T09:03:51.433Z,21.87
2023-05-22T09:06:18.700Z,22.05
2023-05-22T09:08:46.174Z,22.28
2023-05-22T09:11:13.359Z,22.72
2023-05-22T09:13:41.310Z,23.27
2023-05-22T09:16:12.874Z,23.05
2023-05-22T09:18:40.720Z,22.27
2023-05-22T09:21:21.631Z,23.00
2023-05-22T09:23:54.718Z,22.83
2023-05-22T09:26:21.652Z,22.80
2023-05-22T09:28:48.363Z,23.38
2023-05-22T09:31:15.249Z,22.24
2023-05-22T09:33:44.236Z,22.36
2023-05-22T09:36:11.321Z,22.57
2023-05-22T09:38:38.964Z,23.14
2023-05-22T09:41:05.898Z,23.03
2023-05-22T09:43:33.887Z,23.06
2023-05-22T09:46:03.189Z,23.29
2023-05-22T09:48:34.494Z,22.96
2023-05-22T09:51:02.453Z,22.68
2023-05-22T09:53:31.790Z,22.77
2023-05-22T09:56:00.235Z,22.69
2023-05-22T09:58:30.922Z,22.46
2023-05-22T10:00:58.283Z,22.58
2023-05-22T10:03:27.357Z,23.12
2023-05-22T10:05:56.504Z,22.48
2023-05-22T10:08:28.895Z,22.15
2023-05-22T10:10:55.986Z,22.09
2023-05-22T10:13:26.308Z,21.75
2023-05-22T10:15:54.467Z,21.74
2023-05-22T10:18:21.933Z,22.21
2023-05-22T10:20:49.070Z,21.75
2023-05-22T10:23:18.661Z,21.77
2023-05-22T10:25:46.146Z,22.47
2023-05-22T10:28:20.913Z,21.65
2023-05-22T10:30:54.209Z,21.71
2023-05-22T10:33:25.336Z,21.90
2023-05-22T10:35:59.186Z,20.84
2023-05-22T10:38:51.648Z,21.36
2023-05-22T10:41:18.881Z,21.13
2023-05-22T10:43:50.036Z,20.83
2023-05-22T10:46:17.200Z,21.07
2023-05-22T10:48:48.730Z,20.15
2023-05-22T10:51:21.214Z,19.46
2023-05-22T10:54:08.122Z,18.80
2023-05-22T10:56:35.765Z,19.03
2023-05-22T10:59:08.465Z,19.52
2023-05-22T11:01:38.363Z,19.36
2023-05-22T11:04:06.911Z,19.15
2023-05-22T11:06:43.641Z,19.22
2023-05-22T11:09:32.779Z,19.21
2023-05-22T11:12:20.908Z,19.16
2023-05-22T11:15:06.209Z,19.14
2023-05-22T11:17:37.016Z,19.65
2023-05-22T11:20:07.450Z,20.00
2023-05-22T11:22:35.081Z,20.01
2023-05-22T11:25:06.335Z,20.07
2023-05-22T11:27:33.525Z,20.37
2023-05-22T11:30:02.337Z,20.85
2023-05-22T11:32:29.642Z,20.43
2023-05-22T11:34:57.616Z,20.39
2023-05-22T11:37:24.555Z,20.66
2023-05-22T11:39:58.960Z,19.75
2023-05-22T11:42:25.666Z,19.25
2023-05-22T11:44:52.452Z,19.08
2023-05-22T11:47:19.207Z,17.94
2023-05-22T11:49:46.389Z,17.81
2023-05-22T11:52:13.279Z,18.09
2023-05-22T11:54:39.945Z,18.26
2023-05-22T11:57:08.557Z,18.02
2023-05-22T11:59:35.295Z,18.40
2023-05-22T12:02:02.731Z,18.31
2023-05-22T12:04:29.833Z,18.12
2023-05-22T12:06:57.117Z,18.91
2023-05-22T12:09:24.334Z,18.04
2023-05-22T12:11:51.104Z,17.84
2023-05-22T12:14:17.867Z,18.05
2023-05-22T12:16:44.708Z,18.29
2023-05-22T12:19:13.142Z,17.95
2023-05-22T12:21:42.071Z,17.91
2023-05-22T12:24:08.815Z,18.52
2023-05-22T12:26:36.665Z,18.71
2023-05-22T12:29:06.498Z,18.87
2023-05-22T12:31:37.459Z,18.46
2023-05-22T12:34:06.845Z,18.17
2023-05-22T12:36:39.593Z,18.66
2023-05-22T12:39:16.983Z,19.18
2023-05-22T12:41:45.088Z,19.55
2023-05-22T12:44:12.536Z,20.07
2023-05-22T12:46:41.237Z,19.81
2023-05-22T12:49:08.324Z,19.94
2023-05-22T12:51:35.624Z,20.03
2023-05-22T12:54:03.188Z,19.86
2023-05-22T12:56:30.887Z,19.95
2023-05-22T12:58:58.631Z,19.55
2023-05-22T13:01:26.682Z,20.23
2023-05-22T13:03:53.762Z,20.09
2023-05-22T13:06:20.813Z,20.41
2023-05-22T13:08:47.637Z,20.41
2023-05-22T13:11:14.472Z,20.81
2023-05-22T13:13:41.204Z,20.83
2023-05-22T13:16:10.383Z,20.69
2023-05-22T13:18:37.624Z,21.25
2023-05-22T13:21:05.184Z,21.04
2023-05-22T13:23:32.748Z,21.17
2023-05-22T13:26:02.164Z,21.41
2023-05-22T13:28:29.221Z,21.16
2023-05-22T13:30:56.616Z,21.14
2023-05-22T13:33:23.358Z,21.17
2023-05-22T13:35:50.181Z,20.98
2023-05-22T13:38:16.993Z,20.90
2023-05-22T13:40:44.676Z,21.10
2023-05-22T13:43:12.471Z,21.31
2023-05-22T13:45:39.545Z,21.13
2023-05-22T13:48:06.928Z,21.52
2023-05-22T13:50:33.817Z,21.61
2023-05-22T13:53:00.528Z,21.71
2023-05-22T13:55:27.263Z,21.62
2023-05-22T13:57:53.972Z,21.66
2023-05-22T14:00:21.060Z,22.18
2023-05-22T14:02:48.181Z,21.89
2023-05-22T14:05:15.248Z,22.26
2023-05-22T14:07:42.037Z,21.71
2023-05-22T14:10:09.416Z,21.50
2023-05-22T14:12:37.326Z,21.47
2023-05-22T14:15:04.367Z,21.59
2023-05-22T14:17:31.126Z,21.57
2023-05-22T14:19:59.142Z,20.86
2023-05-22T14:22:25.933Z,21.02
2023-05-22T14:24:52.883Z,20.98
2023-05-22T14:27:19.535Z,21.72
2023-05-22T14:29:47.318Z,21.93
2023-05-22T14:32:13.953Z,21.68
2023-05-22T14:34:40.818Z,22.31
2023-05-22T14:37:07.535Z,22.23
2023-05-22T14:39:34.244Z,22.51
2023-05-22T14:42:01.052Z,21.33
2023-05-22T14:44:27.683Z,21.87
2023-05-22T14:46:54.714Z,21.81
2023-05-22T14:49:21.511Z,21.48
2023-05-22T14:51:48.445Z,21.10
2023-05-22T14:54:18.076Z,21.82
2023-05-22T14:56:45.740Z,22.07
2023-05-22T14:59:12.720Z,21.83
2023-05-22T15:01:39.843Z,21.35
2023-05-22T15:04:08.073Z,21.98
2023-05-22T15:06:35.176Z,21.70
2023-05-22T15:09:01.894Z,20.73
2023-05-22T15:11:28.600Z,20.52
2023-05-22T15:13:55.561Z,20.52
2023-05-22T15:16:22.732Z,21.02
2023-05-22T15:18:49.483Z,20.23
2023-05-22T15:21:16.881Z,20.74
2023-05-22T15:23:43.635Z,20.64
2023-05-22T15:26:10.530Z,20.49
2023-05-22T15:28:37.328Z,20.56
2023-05-22T15:31:03.969Z,20.42
2023-05-22T15:33:30.883Z,20.71
2023-05-22T15:35:57.585Z,20.63
2023-05-22T15:38:36.553Z,20.94
2023-05-22T15:41:03.263Z,21.03
2023-05-22T15:43:30.029Z,21.04
2023-05-22T15:45:56.723Z,21.14
2023-05-22T15:48:23.403Z,20.84
2023-05-22T15:50:50.015Z,20.54
2023-05-22T15:53:16.733Z,20.20
2023-05-22T15:55:43.420Z,20.21
2023-05-22T15:58:10.001Z,19.64
2023-05-22T16:00:41.157Z,19.21
2023-05-22T16:03:08.931Z,19.83
2023-05-22T16:05:39.573Z,19.58
2023-05-22T16:08:07.305Z,20.04
2023-05-22T16:10:34.547Z,20.24
2023-05-22T16:13:01.305Z,19.06
2023-05-22T16:15:28.001Z,18.69
2023-05-22T16:17:54.766Z,19.50
2023-05-22T16:20:22.723Z,19.98
2023-05-22T16:22:49.395Z,20.02
2023-05-22T16:25:17.469Z,20.15
2023-05-22T16:27:44.575Z,20.03
2023-05-22T16:30:12.162Z,20.11
2023-05-22T16:32:39.217Z,20.46
2023-05-22T16:35:06.278Z,20.25
2023-05-22T16:37:33.753Z,20.06
2023-05-22T16:40:00.680Z,20.17
2023-05-22T16:42:27.563Z,20.33
2023-05-22T16:44:54.193Z,20.13
2023-05-22T16:47:21.737Z,20.37
2023-05-22T16:49:48.433Z,20.31
2023-05-22T16:52:16.432Z,20.27
2023-05-22T16:54:43.074Z,19.78
2023-05-22T16:57:09.789Z,19.98
2023-05-22T16:59:36.442Z,20.03
2023-05-22T17:02:03.830Z,20.03
2023-05-22T17:04:31.114Z,19.42
2023-05-22T17:06:57.712Z,19.64
2023-05-22T17:09:24.354Z,19.81
2023-05-22T17:11:51.067Z,19.90
2023-05-22T17:14:17.746Z,19.91
2023-05-22T17:16:44.507Z,19.85
2023-05-22T17:19:11.313Z,19.72
2023-05-22T17:21:38.020Z,19.79
2023-05-22T17:24:04.977Z,19.93
2023-05-22T17:26:33.579Z,19.88
2023-05-22T17:29:00.287Z,19.72
2023-05-22T17:31:27.336Z,19.75
2023-05-22T17:33:54.136Z,19.67
2023-05-22T17:36:21.086Z,19.69
2023-05-22T17:38:47.790Z,19.59
2023-05-22T17:41:14.421Z,19.49
2023-05-22T17:43:41.083Z,19.43
2023-05-22T17:46:07.739Z,19.51
2023-05-22T17:48:34.539Z,19.78
2023-05-22T17:51:01.214Z,19.33
2023-05-22T17:53:32.097Z,19.31
2023-05-22T17:55:58.748Z,19.30
2023-05-22T17:58:25.416Z,19.36
2023-05-22T18:00:52.212Z,19.09
2023-05-22T18:03:22.196Z,19.02
2023-05-22T18:05:50.053Z,19.07
2023-05-22T18:08:17.540Z,19.02
2023-05-22T18:10:44.271Z,19.09
2023-05-22T18:13:11.133Z,19.25
2023-05-22T18:15:37.873Z,19.07
2023-05-22T18:18:04.778Z,18.17
2023-05-22T18:20:33.125Z,18.41
2023-05-22T18:23:00.369Z,18.49
2023-05-22T18:25:27.061Z,18.77
2023-05-22T18:27:55.170Z,18.87
2023-05-22T18:30:22.040Z,18.88
2023-05-22T18:32:48.768Z,18.71
2023-05-22T18:35:15.506Z,18.58
2023-05-22T18:37:42.174Z,18.52
2023-05-22T18:40:10.962Z,18.23
2023-05-22T18:42:37.662Z,18.04
2023-05-22T18:45:05.986Z,18.19
2023-05-22T18:47:32.736Z,17.56
2023-05-22T18:49:59.467Z,17.33
2023-05-22T18:52:26.265Z,17.84
2023-05-22T18:54:52.955Z,17.84
2023-05-22T18:57:19.621Z,17.55
2023-05-22T18:59:47.132Z,16.93
2023-05-22T19:02:16.484Z,17.37
2023-05-22T19:04:43.679Z,17.38
2023-05-22T19:07:10.411Z,17.95
2023-05-22T19:09:37.467Z,17.80
2023-05-22T19:12:05.552Z,17.97
2023-05-22T19:14:32.289Z,18.02
2023-05-22T19:17:02.034Z,18.10
2023-05-22T19:19:31.691Z,17.88
2023-05-22T19:21:58.440Z,17.61
2023-05-22T19:24:26.495Z,17.51
2023-05-22T19:26:53.105Z,17.41
2023-05-22T19:29:19.775Z,17.76
2023-05-22T19:31:46.412Z,18.15
2023-05-22T19:34:13.164Z,18.11
2023-05-22T19:36:39.838Z,17.96
2023-05-22T19:39:06.792Z,17.75
2023-05-22T19:41:33.436Z,17.81
2023-05-22T19:44:00.166Z,17.65
2023-05-22T19:46:27.016Z,17.14
2023-05-22T19:48:53.902Z,17.71
2023-05-22T19:51:20.669Z,17.77
2023-05-22T19:53:47.420Z,17.85
2023-05-22T19:56:14.053Z,17.81
2023-05-22T19:58:40.859Z,17.95
2023-05-22T20:01:07.556Z,18.04
2023-05-22T20:03:34.449Z,18.13
2023-05-22T20:06:02.068Z,17.96
2023-05-22T20:08:29.087Z,17.90
2023-05-22T20:10:55.827Z,17.99
2023-05-22T20:13:22.488Z,17.73
2023-05-22T20:15:51.264Z,17.77
2023-05-22T20:18:18.680Z,17.60
2023-05-22T20:20:45.410Z,17.65
2023-05-22T20:23:12.051Z,17.54
2023-05-22T20:25:39.411Z,16.71
2023-05-22T20:28:06.623Z,16.92
2023-05-22T20:30:33.238Z,17.18
2023-05-22T20:32:59.969Z,17.30
2023-05-22T20:35:26.939Z,17.62
2023-05-22T20:37:53.906Z,17.63
2023-05-22T20:40:20.664Z,17.36
2023-05-22T20:42:47.704Z,17.28
2023-05-22T20:45:16.018Z,17.38
2023-05-22T20:47:43.397Z,16.80
2023-05-22T20:50:11.278Z,16.56
2023-05-22T20:52:38.269Z,16.30
2023-05-22T20:55:05.804Z,16.34
2023-05-22T20:57:32.598Z,16.42
2023-05-22T20:59:59.479Z,16.47
2023-05-22T21:02:26.338Z,16.76
2023-05-22T21:04:53.592Z,16.88
2023-05-22T21:07:20.315Z,16.84
2023-05-22T21:09:46.996Z,17.36
2023-05-22T21:12:13.815Z,16.80
2023-05-22T21:14:40.943Z,17.00
2023-05-22T21:17:07.749Z,17.03
2023-05-22T21:19:34.513Z,17.17
2023-05-22T21:22:02.077Z,16.97
2023-05-22T21:24:28.716Z,17.11
2023-05-22T21:26:55.478Z,16.84
2023-05-22T21:29:22.183Z,16.82
2023-05-22T21:31:48.914Z,17.15
2023-05-22T21:34:15.730Z,16.88
2023-05-22T21:36:42.424Z,16.38
2023-05-22T21:39:09.047Z,16.17
2023-05-22T21:41:35.935Z,16.21
2023-05-22T21:44:02.643Z,16.56
2023-05-22T21:46:29.295Z,16.90
2023-05-22T21:48:56.183Z,17.06
2023-05-22T21:51:22.904Z,17.24
2023-05-22T21:53:49.570Z,17.32
2023-05-22T21:56:16.316Z,17.58
2023-05-22T21:58:43.043Z,17.61
2023-05-22T22:01:10.228Z,17.40
2023-05-22T22:03:39.120Z,17.48
2023-05-22T22:06:06.400Z,16.99
2023-05-22T22:08:33.692Z,17.07
2023-05-22T22:11:00.537Z,17.12
2023-05-22T22:13:27.478Z,16.78
2023-05-22T22:15:54.256Z,16.48
2023-05-22T22:18:21.042Z,16.36
2023-05-22T22:20:50.151Z,16.61
2023-05-22T22:23:17.117Z,16.63
2023-05-22T22:25:44.570Z,16.36
2023-05-22T22:28:11.691Z,16.76
2023-05-22T22:30:38.703Z,16.85
2023-05-22T22:33:06.676Z,17.08
2023-05-22T22:35:33.998Z,16.99
2023-05-22T22:38:01.107Z,16.63
2023-05-22T22:40:27.822Z,16.83
2023-05-22T22:42:55.993Z,17.19
2023-05-22T22:45:23.320Z,17.20
2023-05-22T22:47:50.854Z,17.27
2023-05-22T22:50:18.233Z,16.53
2023-05-22T22:52:48.494Z,16.83
2023-05-22T22:55:16.288Z,16.77
2023-05-22T22:57:44.766Z,16.64
2023-05-22T23:00:16.112Z,16.44
2023-05-22T23:02:43.464Z,15.68
2023-05-22T23:05:11.023Z,15.35
2023-05-22T23:07:38.193Z,15.18
2023-05-22T23:10:05.175Z,15.21
2023-05-22T23:12:35.234Z,14.98
2023-05-22T23:15:02.923Z,15.08
2023-05-22T23:17:30.228Z,15.07
2023-05-22T23:19:57.368Z,14.52
2023-05-22T23:22:26.490Z,14.76
2023-05-22T23:24:53.181Z,15.09
2023-05-22T23:27:19.802Z,15.45
2023-05-22T23:29:46.519Z,15.64
2023-05-22T23:32:14.743Z,15.89
2023-05-22T23:34:42.445Z,15.81
2023-05-22T23:37:10.132Z,16.19
2023-05-22T23:39:36.820Z,16.49
2023-05-22T23:42:03.926Z,16.45
2023-05-22T23:44:31.368Z,16.29
2023-05-22T23:46:58.213Z,15.76
2023-05-22T23:49:24.930Z,15.35
2023-05-22T23:51:51.668Z,15.03
2023-05-22T23:54:18.393Z,15.14
2023-05-22T23:56:45.362Z,15.19
2023-05-22T23:59:12.046Z,15.37
